createdAt,value
2017-04-09T00:00:23.769Z,1018.35
2017-04-09T00:00:49.877Z,1018.38
2017-04-09T00:01:16.080Z,1018.35
2017-04-09T00:01:42.121Z,1018.36
2017-04-09T00:02:08.230Z,1018.37
2017-04-09T00:02:34.377Z,1018.35
2017-04-09T00:03:00.651Z,1018.38
2017-04-09T00:03:26.778Z,1018.34
2017-04-09T00:03:52.925Z,1018.37
2017-04-09T00:04:19.031Z,1018.35
2017-04-09T00:04:45.178Z,1018.34
2017-04-09T00:05:11.281Z,1018.31
2017-04-09T00:05:37.362Z,1018.39
2017-04-09T00:06:03.468Z,1018.3
2017-04-09T00:06:29.595Z,1018.31
2017-04-09T00:06:55.673Z,1018.34
2017-04-09T00:07:21.776Z,1018.32
2017-04-09T00:07:47.977Z,1018.33
2017-04-09T00:08:14.095Z,1018.33
2017-04-09T00:08:40.222Z,1018.37
2017-04-09T00:09:06.298Z,1018.33
2017-04-09T00:09:32.427Z,1018.37
2017-04-09T00:09:58.536Z,1018.35
2017-04-09T00:10:24.642Z,1018.34
2017-04-09T00:10:50.722Z,1018.29
2017-04-09T00:11:16.827Z,1018.34
2017-04-09T00:11:42.906Z,1018.35
2017-04-09T00:12:08.988Z,1018.31
2017-04-09T00:12:35.069Z,1018.32
2017-04-09T00:13:01.174Z,1018.31
2017-04-09T00:13:27.252Z,1018.3
2017-04-09T00:13:53.361Z,1018.31
2017-04-09T00:14:19.466Z,1018.29
2017-04-09T00:14:45.574Z,1018.31
2017-04-09T00:15:11.750Z,1018.29
2017-04-09T00:15:37.871Z,1018.31
2017-04-09T00:16:03.912Z,1018.28
2017-04-09T00:16:30.014Z,1018.29
2017-04-09T00:16:56.095Z,1018.27
2017-04-09T00:17:22.200Z,1018.3
2017-04-09T00:17:48.279Z,1018.23
2017-04-09T00:18:14.358Z,1018.25
2017-04-09T00:18:40.440Z,1018.24
2017-04-09T00:19:06.544Z,1018.21
2017-04-09T00:19:32.623Z,1018.24
2017-04-09T00:19:58.701Z,1018.24
2017-04-09T00:20:24.781Z,1018.27
2017-04-09T00:20:50.859Z,1018.25
2017-04-09T00:21:16.943Z,1018.23
2017-04-09T00:21:43.047Z,1018.26
2017-04-09T00:22:09.127Z,1018.2
2017-04-09T00:22:35.205Z,1018.21
2017-04-09T00:23:01.290Z,1018.21
2017-04-09T00:23:27.374Z,1018.23
2017-04-09T00:23:53.455Z,1018.22
2017-04-09T00:24:19.537Z,1018.24
2017-04-09T00:24:45.615Z,1018.23
2017-04-09T00:25:11.697Z,1018.22
2017-04-09T00:25:37.785Z,1018.2
2017-04-09T00:26:03.904Z,1018.27
2017-04-09T00:26:30.057Z,1018.25
2017-04-09T00:26:56.159Z,1018.25
2017-04-09T00:27:22.275Z,1018.23
2017-04-09T00:27:48.391Z,1018.25
2017-04-09T00:28:14.487Z,1018.27
2017-04-09T00:28:40.566Z,1018.25
2017-04-09T00:29:06.696Z,1018.24
2017-04-09T00:29:32.758Z,1018.27
2017-04-09T00:29:58.827Z,1018.27
2017-04-09T00:30:24.934Z,1018.27
2017-04-09T00:30:51.242Z,1018.26
2017-04-09T00:31:17.322Z,1018.27
2017-04-09T00:31:43.420Z,1018.22
2017-04-09T00:32:09.524Z,1018.24
2017-04-09T00:32:35.604Z,1018.25
2017-04-09T00:33:01.705Z,1018.25
2017-04-09T00:33:27.848Z,1018.22
2017-04-09T00:33:54.019Z,1018.21
2017-04-09T00:34:20.149Z,1018.23
2017-04-09T00:34:46.265Z,1018.22
2017-04-09T00:35:12.375Z,1018.19
2017-04-09T00:35:38.544Z,1018.23
2017-04-09T00:36:04.670Z,1018.19
2017-04-09T00:36:30.774Z,1018.22
2017-04-09T00:36:56.856Z,1018.2
2017-04-09T00:37:22.959Z,1018.19
2017-04-09T00:37:49.095Z,1018.15
2017-04-09T00:38:15.224Z,1018.18
2017-04-09T00:38:41.357Z,1018.18
2017-04-09T00:39:07.467Z,1018.18
2017-04-09T00:39:33.570Z,1018.17
2017-04-09T00:39:59.742Z,1018.17
2017-04-09T00:40:25.833Z,1018.17
2017-04-09T00:40:51.942Z,1018.2
2017-04-09T00:41:18.042Z,1018.2
2017-04-09T00:41:44.121Z,1018.18
2017-04-09T00:42:10.262Z,1018.19
2017-04-09T00:42:36.343Z,1018.18
2017-04-09T00:43:02.456Z,1018.18
2017-04-09T00:43:28.584Z,1018.19
2017-04-09T00:43:54.680Z,1018.2
2017-04-09T00:44:20.761Z,1018.2
2017-04-09T00:44:46.902Z,1018.17
2017-04-09T00:45:12.972Z,1018.2
2017-04-09T00:45:39.079Z,1018.2
2017-04-09T00:46:05.186Z,1018.21
2017-04-09T00:46:31.294Z,1018.2
2017-04-09T00:46:57.403Z,1018.21
2017-04-09T00:47:23.521Z,1018.22
2017-04-09T00:47:49.638Z,1018.21
2017-04-09T00:48:15.720Z,1018.22
2017-04-09T00:48:41.798Z,1018.2
2017-04-09T00:49:07.879Z,1018.18
2017-04-09T00:49:34.215Z,1018.22
2017-04-09T00:50:00.294Z,1018.21
2017-04-09T00:50:26.384Z,1018.2
2017-04-09T00:50:52.478Z,1018.2
2017-04-09T00:51:18.614Z,1018.2
2017-04-09T00:51:44.800Z,1018.17
2017-04-09T00:52:10.871Z,1018.18
2017-04-09T00:52:37.021Z,1018.16
2017-04-09T00:53:03.130Z,1018.17
2017-04-09T00:53:29.237Z,1018.17
2017-04-09T00:53:55.356Z,1018.17
2017-04-09T00:54:21.490Z,1018.17
2017-04-09T00:54:47.595Z,1018.18
2017-04-09T00:55:13.719Z,1018.17
2017-04-09T00:55:39.800Z,1018.18
2017-04-09T00:56:05.915Z,1018.19
2017-04-09T00:56:32.020Z,1018.17
2017-04-09T00:56:58.133Z,1018.17
2017-04-09T00:57:24.251Z,1018.22
2017-04-09T00:57:50.350Z,1018.16
2017-04-09T00:58:16.456Z,1018.18
2017-04-09T00:58:42.580Z,1018.19
2017-04-09T00:59:08.713Z,1018.19
2017-04-09T00:59:34.842Z,1018.21
2017-04-09T01:00:00.941Z,1018.16
2017-04-09T01:00:27.061Z,1018.16
2017-04-09T01:00:53.147Z,1018.17
2017-04-09T01:01:19.368Z,1018.14
2017-04-09T01:01:45.447Z,1018.18
2017-04-09T01:02:11.531Z,1018.18
2017-04-09T01:02:37.611Z,1018.17
2017-04-09T01:03:03.688Z,1018.16
2017-04-09T01:03:29.766Z,1018.16
2017-04-09T01:03:55.847Z,1018.19
2017-04-09T01:04:21.926Z,1018.17
2017-04-09T01:04:48.031Z,1018.16
2017-04-09T01:05:14.159Z,1018.17
2017-04-09T01:05:40.240Z,1018.17
2017-04-09T01:06:06.320Z,1018.14
2017-04-09T01:06:32.424Z,1018.17
2017-04-09T01:06:58.527Z,1018.13
2017-04-09T01:07:24.612Z,1018.13
2017-04-09T01:07:50.715Z,1018.14
2017-04-09T01:08:16.797Z,1018.16
2017-04-09T01:08:42.903Z,1018.16
2017-04-09T01:09:09.027Z,1018.15
2017-04-09T01:09:35.131Z,1018.18
2017-04-09T01:10:01.233Z,1018.16
2017-04-09T01:10:27.312Z,1018.19
2017-04-09T01:10:53.395Z,1018.15
2017-04-09T01:11:19.499Z,1018.13
2017-04-09T01:11:45.581Z,1018.17
2017-04-09T01:12:11.662Z,1018.13
2017-04-09T01:12:37.785Z,1018.11
2017-04-09T01:13:03.888Z,1018.1
2017-04-09T01:13:30.040Z,1018.11
2017-04-09T01:13:56.166Z,1018.09
2017-04-09T01:14:22.269Z,1018.13
2017-04-09T01:14:48.370Z,1018.15
2017-04-09T01:15:14.474Z,1018.16
2017-04-09T01:15:40.582Z,1018.17
2017-04-09T01:16:06.708Z,1018.12
2017-04-09T01:16:32.788Z,1018.1
2017-04-09T01:16:58.868Z,1018.14
2017-04-09T01:17:24.962Z,1018.1
2017-04-09T01:17:51.034Z,1018.14
2017-04-09T01:18:17.160Z,1018.13
2017-04-09T01:18:43.263Z,1018.09
2017-04-09T01:19:09.390Z,1018.09
2017-04-09T01:19:35.541Z,1018.08
2017-04-09T01:20:01.621Z,1018.09
2017-04-09T01:20:27.697Z,1018.1
2017-04-09T01:20:53.777Z,1018.11
2017-04-09T01:21:19.857Z,1018.09
2017-04-09T01:21:45.937Z,1018.06
2017-04-09T01:22:12.017Z,1018.1
2017-04-09T01:22:38.099Z,1018.07
2017-04-09T01:23:04.179Z,1018.04
2017-04-09T01:23:30.265Z,1018.08
2017-04-09T01:23:56.365Z,1018.08
2017-04-09T01:24:22.465Z,1018.09
2017-04-09T01:24:48.547Z,1018.08
2017-04-09T01:25:14.626Z,1018.07
2017-04-09T01:25:40.727Z,1018.06
2017-04-09T01:26:06.807Z,1018.05
2017-04-09T01:26:32.886Z,1018.08
2017-04-09T01:26:58.967Z,1018.09
2017-04-09T01:27:25.073Z,1018.08
2017-04-09T01:27:51.156Z,1018.08
2017-04-09T01:28:17.281Z,1018.1
2017-04-09T01:28:43.361Z,1018.06
2017-04-09T01:29:09.441Z,1018.07
2017-04-09T01:29:35.521Z,1018.05
2017-04-09T01:30:01.600Z,1018.1
2017-04-09T01:30:27.679Z,1018.06
2017-04-09T01:30:53.761Z,1018.05
2017-04-09T01:31:19.862Z,1018.04
2017-04-09T01:31:45.941Z,1018.05
2017-04-09T01:32:12.024Z,1018.04
2017-04-09T01:32:38.104Z,1018.05
2017-04-09T01:33:04.185Z,1018.04
2017-04-09T01:33:30.268Z,1018.03
2017-04-09T01:33:56.370Z,1018.07
2017-04-09T01:34:22.452Z,1018.05
2017-04-09T01:34:48.532Z,1018.07
2017-04-09T01:35:14.614Z,1018.04
2017-04-09T01:35:40.716Z,1018.03
2017-04-09T01:36:06.796Z,1018.04
2017-04-09T01:36:32.877Z,1018
2017-04-09T01:36:58.954Z,1018.06
2017-04-09T01:37:25.034Z,1018.02
2017-04-09T01:37:51.112Z,1018.05
2017-04-09T01:38:17.192Z,1018.04
2017-04-09T01:38:43.296Z,1018.02
2017-04-09T01:39:09.375Z,1018
2017-04-09T01:39:35.455Z,1018.02
2017-04-09T01:40:01.537Z,1018.01
2017-04-09T01:40:27.614Z,1017.97
2017-04-09T01:40:53.692Z,1017.99
2017-04-09T01:41:19.773Z,1018.01
2017-04-09T01:41:45.853Z,1017.97
2017-04-09T01:42:11.956Z,1017.99
2017-04-09T01:42:38.035Z,1017.98
2017-04-09T01:43:04.138Z,1017.96
2017-04-09T01:43:30.263Z,1017.97
2017-04-09T01:43:56.384Z,1017.96
2017-04-09T01:44:22.490Z,1017.97
2017-04-09T01:44:48.569Z,1017.94
2017-04-09T01:45:14.670Z,1017.94
2017-04-09T01:45:40.751Z,1017.92
2017-04-09T01:46:06.856Z,1017.88
2017-04-09T01:46:32.960Z,1017.9
2017-04-09T01:46:59.037Z,1017.91
2017-04-09T01:47:25.119Z,1017.92
2017-04-09T01:47:51.227Z,1017.9
2017-04-09T01:48:17.352Z,1017.9
2017-04-09T01:48:43.480Z,1017.9
2017-04-09T01:49:09.605Z,1017.91
2017-04-09T01:49:35.728Z,1017.92
2017-04-09T01:50:01.808Z,1017.92
2017-04-09T01:50:27.915Z,1017.91
2017-04-09T01:50:53.996Z,1017.91
2017-04-09T01:51:20.096Z,1017.93
2017-04-09T01:51:46.176Z,1017.91
2017-04-09T01:52:12.281Z,1017.92
2017-04-09T01:52:38.387Z,1017.9
2017-04-09T01:53:04.467Z,1017.91
2017-04-09T01:53:30.588Z,1017.93
2017-04-09T01:53:56.716Z,1017.94
2017-04-09T01:54:22.796Z,1017.96
2017-04-09T01:54:48.898Z,1017.93
2017-04-09T01:55:15.026Z,1017.98
2017-04-09T01:55:41.105Z,1017.91
2017-04-09T01:56:07.231Z,1017.95
2017-04-09T01:56:33.339Z,1017.93
2017-04-09T01:56:59.419Z,1017.97
2017-04-09T01:57:25.497Z,1017.95
2017-04-09T01:57:51.623Z,1017.94
2017-04-09T01:58:17.730Z,1017.92
2017-04-09T01:58:43.859Z,1017.95
2017-04-09T01:59:09.939Z,1017.97
2017-04-09T01:59:36.039Z,1017.92
2017-04-09T02:00:02.120Z,1017.91
2017-04-09T02:00:28.223Z,1017.97
2017-04-09T02:00:54.327Z,1017.95
2017-04-09T02:01:20.432Z,1017.94
2017-04-09T02:01:46.612Z,1017.95
2017-04-09T02:02:12.717Z,1017.95
2017-04-09T02:02:38.795Z,1017.96
2017-04-09T02:03:04.922Z,1018
2017-04-09T02:03:31.025Z,1017.95
2017-04-09T02:03:57.126Z,1017.97
2017-04-09T02:04:23.236Z,1018.02
2017-04-09T02:04:49.313Z,1017.99
2017-04-09T02:05:15.391Z,1017.99
2017-04-09T02:05:41.476Z,1017.98
2017-04-09T02:06:07.550Z,1018
2017-04-09T02:06:33.631Z,1017.97
2017-04-09T02:06:59.735Z,1017.99
2017-04-09T02:07:25.839Z,1017.98
2017-04-09T02:07:51.960Z,1017.98
2017-04-09T02:08:18.040Z,1017.97
2017-04-09T02:08:44.147Z,1017.99
2017-04-09T02:09:10.248Z,1017.95
2017-04-09T02:09:36.327Z,1017.97
2017-04-09T02:10:02.430Z,1017.95
2017-04-09T02:10:28.510Z,1017.95
2017-04-09T02:10:54.613Z,1017.99
2017-04-09T02:11:20.690Z,1017.97
2017-04-09T02:11:46.771Z,1017.97
2017-04-09T02:12:12.897Z,1017.97
2017-04-09T02:12:38.978Z,1017.95
2017-04-09T02:13:05.126Z,1017.94
2017-04-09T02:13:31.251Z,1017.94
2017-04-09T02:13:57.356Z,1017.97
2017-04-09T02:14:23.482Z,1017.92
2017-04-09T02:14:49.562Z,1017.93
2017-04-09T02:15:15.641Z,1017.95
2017-04-09T02:15:41.721Z,1017.94
2017-04-09T02:16:07.801Z,1017.93
2017-04-09T02:16:33.927Z,1017.91
2017-04-09T02:17:00.031Z,1017.95
2017-04-09T02:17:26.112Z,1017.94
2017-04-09T02:17:52.219Z,1017.93
2017-04-09T02:18:18.322Z,1017.92
2017-04-09T02:18:44.420Z,1017.93
2017-04-09T02:19:10.525Z,1017.92
2017-04-09T02:19:36.608Z,1017.94
2017-04-09T02:20:02.722Z,1017.98
2017-04-09T02:20:28.810Z,1017.92
2017-04-09T02:20:54.890Z,1017.91
2017-04-09T02:21:20.996Z,1017.94
2017-04-09T02:21:47.075Z,1017.94
2017-04-09T02:22:13.199Z,1017.94
2017-04-09T02:22:39.322Z,1017.91
2017-04-09T02:23:05.401Z,1017.92
2017-04-09T02:23:31.479Z,1017.86
2017-04-09T02:23:57.558Z,1017.86
2017-04-09T02:24:23.639Z,1017.92
2017-04-09T02:24:49.718Z,1017.89
2017-04-09T02:25:15.822Z,1017.87
2017-04-09T02:25:41.904Z,1017.85
2017-04-09T02:26:07.982Z,1017.87
2017-04-09T02:26:34.059Z,1017.88
2017-04-09T02:27:00.173Z,1017.84
2017-04-09T02:27:26.247Z,1017.83
2017-04-09T02:27:52.327Z,1017.82
2017-04-09T02:28:18.406Z,1017.81
2017-04-09T02:28:44.510Z,1017.83
2017-04-09T02:29:10.593Z,1017.82
2017-04-09T02:29:36.671Z,1017.84
2017-04-09T02:30:02.751Z,1017.82
2017-04-09T02:30:28.856Z,1017.81
2017-04-09T02:30:54.979Z,1017.8
2017-04-09T02:31:21.083Z,1017.77
2017-04-09T02:31:47.231Z,1017.75
2017-04-09T02:32:13.332Z,1017.81
2017-04-09T02:32:39.435Z,1017.8
2017-04-09T02:33:05.555Z,1017.75
2017-04-09T02:33:31.658Z,1017.78
2017-04-09T02:33:57.763Z,1017.77
2017-04-09T02:34:23.885Z,1017.75
2017-04-09T02:34:49.967Z,1017.82
2017-04-09T02:35:16.048Z,1017.78
2017-04-09T02:35:42.153Z,1017.8
2017-04-09T02:36:08.258Z,1017.8
2017-04-09T02:36:34.363Z,1017.81
2017-04-09T02:37:00.461Z,1017.77
2017-04-09T02:37:26.541Z,1017.78
2017-04-09T02:37:52.650Z,1017.78
2017-04-09T02:38:18.754Z,1017.8
2017-04-09T02:38:44.859Z,1017.77
2017-04-09T02:39:10.964Z,1017.8
2017-04-09T02:39:37.043Z,1017.84
2017-04-09T02:40:03.143Z,1017.77
2017-04-09T02:40:29.225Z,1017.79
2017-04-09T02:40:55.303Z,1017.78
2017-04-09T02:41:21.380Z,1017.76
2017-04-09T02:41:47.460Z,1017.76
2017-04-09T02:42:13.562Z,1017.76
2017-04-09T02:42:39.640Z,1017.76
2017-04-09T02:43:05.721Z,1017.75
2017-04-09T02:43:31.825Z,1017.78
2017-04-09T02:43:57.998Z,1017.78
2017-04-09T02:44:24.076Z,1017.77
2017-04-09T02:44:50.179Z,1017.75
2017-04-09T02:45:16.286Z,1017.76
2017-04-09T02:45:42.367Z,1017.76
2017-04-09T02:46:08.473Z,1017.78
2017-04-09T02:46:34.551Z,1017.78
2017-04-09T02:47:00.632Z,1017.72
2017-04-09T02:47:26.738Z,1017.75
2017-04-09T02:47:52.859Z,1017.75
2017-04-09T02:48:19.031Z,1017.76
2017-04-09T02:48:45.156Z,1017.72
2017-04-09T02:49:11.236Z,1017.75
2017-04-09T02:49:37.359Z,1017.76
2017-04-09T02:50:03.442Z,1017.74
2017-04-09T02:50:29.521Z,1017.78
2017-04-09T02:50:55.603Z,1017.77
2017-04-09T02:51:21.683Z,1017.76
2017-04-09T02:51:47.782Z,1017.73
2017-04-09T02:52:13.861Z,1017.71
2017-04-09T02:52:39.946Z,1017.74
2017-04-09T02:53:06.027Z,1017.71
2017-04-09T02:53:32.130Z,1017.72
2017-04-09T02:53:58.207Z,1017.7
2017-04-09T02:54:24.290Z,1017.69
2017-04-09T02:54:50.390Z,1017.71
2017-04-09T02:55:16.469Z,1017.68
2017-04-09T02:55:42.560Z,1017.7
2017-04-09T02:56:08.652Z,1017.69
2017-04-09T02:56:34.731Z,1017.68
2017-04-09T02:57:00.811Z,1017.7
2017-04-09T02:57:26.891Z,1017.71
2017-04-09T02:57:52.969Z,1017.68
2017-04-09T02:58:19.656Z,1017.66
2017-04-09T02:58:45.752Z,1017.69
2017-04-09T03:05:53.293Z,1017.63
2017-04-09T03:06:19.397Z,1017.64
2017-04-09T03:06:45.505Z,1017.62
2017-04-09T03:07:11.587Z,1017.63
2017-04-09T03:07:37.691Z,1017.63
2017-04-09T03:08:03.794Z,1017.64
2017-04-09T03:08:29.874Z,1017.65
2017-04-09T03:08:56.001Z,1017.63
2017-04-09T03:09:22.258Z,1017.66
2017-04-09T03:09:48.365Z,1017.67
2017-04-09T03:10:14.590Z,1017.66
2017-04-09T03:10:40.696Z,1017.66
2017-04-09T03:11:06.777Z,1017.66
2017-04-09T03:11:32.881Z,1017.66
2017-04-09T03:11:58.964Z,1017.66
2017-04-09T03:12:25.047Z,1017.66
2017-04-09T03:12:51.153Z,1017.66
2017-04-09T03:13:17.280Z,1017.66
2017-04-09T03:13:43.409Z,1017.64
2017-04-09T03:14:09.535Z,1017.66
2017-04-09T03:14:35.642Z,1017.64
2017-04-09T03:15:01.819Z,1017.62
2017-04-09T03:15:27.900Z,1017.65
2017-04-09T03:15:54.029Z,1017.59
2017-04-09T03:16:20.211Z,1017.61
2017-04-09T03:16:46.319Z,1017.63
2017-04-09T03:17:12.571Z,1017.62
2017-04-09T03:17:38.676Z,1017.61
2017-04-09T03:18:04.754Z,1017.62
2017-04-09T03:18:30.859Z,1017.65
2017-04-09T03:18:56.968Z,1017.65
2017-04-09T03:19:23.119Z,1017.63
2017-04-09T03:19:49.225Z,1017.64
2017-04-09T03:20:15.307Z,1017.64
2017-04-09T03:20:41.390Z,1017.62
2017-04-09T03:21:07.472Z,1017.62
2017-04-09T03:21:33.574Z,1017.64
2017-04-09T03:21:59.680Z,1017.63
2017-04-09T03:22:25.762Z,1017.6
2017-04-09T03:22:51.867Z,1017.64
2017-04-09T03:23:17.995Z,1017.63
2017-04-09T03:23:44.103Z,1017.65
2017-04-09T03:24:10.229Z,1017.63
2017-04-09T03:24:36.354Z,1017.64
2017-04-09T03:25:02.457Z,1017.64
2017-04-09T03:25:28.562Z,1017.61
2017-04-09T03:25:55.043Z,1017.59
2017-04-09T03:26:21.124Z,1017.63
2017-04-09T03:26:47.204Z,1017.62
2017-04-09T03:27:13.284Z,1017.61
2017-04-09T03:27:39.438Z,1017.59
2017-04-09T03:28:05.565Z,1017.58
2017-04-09T03:28:31.692Z,1017.57
2017-04-09T03:28:57.841Z,1017.6
2017-04-09T03:29:23.947Z,1017.6
2017-04-09T03:29:50.069Z,1017.56
2017-04-09T03:30:16.173Z,1017.56
2017-04-09T03:30:42.256Z,1017.61
2017-04-09T03:31:08.335Z,1017.56
2017-04-09T03:31:34.411Z,1017.58
2017-04-09T03:32:00.495Z,1017.6
2017-04-09T03:32:26.578Z,1017.57
2017-04-09T03:32:52.703Z,1017.6
2017-04-09T03:33:18.806Z,1017.59
2017-04-09T03:33:44.887Z,1017.62
2017-04-09T03:34:11.060Z,1017.6
2017-04-09T03:34:37.186Z,1017.61
2017-04-09T03:35:03.313Z,1017.62
2017-04-09T03:35:29.418Z,1017.62
2017-04-09T03:35:55.520Z,1017.62
2017-04-09T03:36:21.624Z,1017.61
2017-04-09T03:36:47.727Z,1017.62
2017-04-09T03:37:13.834Z,1017.6
2017-04-09T03:37:39.939Z,1017.64
2017-04-09T03:38:06.069Z,1017.62
2017-04-09T03:38:32.153Z,1017.6
2017-04-09T03:38:58.280Z,1017.62
2017-04-09T03:39:24.363Z,1017.64
2017-04-09T03:39:50.541Z,1017.63
2017-04-09T03:40:16.621Z,1017.64
2017-04-09T03:40:42.700Z,1017.6
2017-04-09T03:41:08.778Z,1017.62
2017-04-09T03:41:34.883Z,1017.61
2017-04-09T03:42:00.986Z,1017.62
2017-04-09T03:42:27.111Z,1017.6
2017-04-09T03:42:53.193Z,1017.61
2017-04-09T03:43:19.306Z,1017.63
2017-04-09T03:43:45.444Z,1017.62
2017-04-09T03:44:11.487Z,1017.6
2017-04-09T03:44:37.589Z,1017.66
2017-04-09T03:45:03.670Z,1017.64
2017-04-09T03:45:29.774Z,1017.6
2017-04-09T03:45:55.855Z,1017.62
2017-04-09T03:46:21.960Z,1017.6
2017-04-09T03:46:48.042Z,1017.63
2017-04-09T03:47:14.123Z,1017.6
2017-04-09T03:47:40.227Z,1017.64
2017-04-09T03:48:06.331Z,1017.63
2017-04-09T03:48:32.412Z,1017.67
2017-04-09T03:48:58.567Z,1017.64
2017-04-09T03:49:24.696Z,1017.63
2017-04-09T03:49:50.801Z,1017.62
2017-04-09T03:50:16.905Z,1017.63
2017-04-09T03:50:42.985Z,1017.65
2017-04-09T03:51:09.063Z,1017.67
2017-04-09T03:51:35.145Z,1017.64
2017-04-09T03:52:01.250Z,1017.66
2017-04-09T03:52:27.331Z,1017.62
2017-04-09T03:52:53.413Z,1017.66
2017-04-09T03:53:19.517Z,1017.64
2017-04-09T03:53:45.598Z,1017.65
2017-04-09T03:54:11.679Z,1017.62
2017-04-09T03:54:37.783Z,1017.67
2017-04-09T03:55:03.893Z,1017.64
2017-04-09T03:55:29.968Z,1017.63
2017-04-09T03:55:56.049Z,1017.64
2017-04-09T03:56:22.482Z,1017.68
2017-04-09T03:56:48.563Z,1017.63
2017-04-09T03:57:14.690Z,1017.65
2017-04-09T03:57:40.772Z,1017.62
2017-04-09T03:58:06.898Z,1017.64
2017-04-09T03:58:32.978Z,1017.66
2017-04-09T03:58:59.085Z,1017.69
2017-04-09T03:59:25.190Z,1017.65
2017-04-09T03:59:51.271Z,1017.66
2017-04-09T04:00:17.375Z,1017.62
2017-04-09T04:00:43.475Z,1017.63
2017-04-09T04:01:09.556Z,1017.67
2017-04-09T04:01:35.681Z,1017.64
2017-04-09T04:02:01.787Z,1017.64
2017-04-09T04:02:27.869Z,1017.63
2017-04-09T04:02:54.019Z,1017.64
2017-04-09T04:03:20.123Z,1017.65
2017-04-09T04:03:46.272Z,1017.63
2017-04-09T04:04:12.355Z,1017.64
2017-04-09T04:04:38.436Z,1017.62
2017-04-09T04:05:04.539Z,1017.61
2017-04-09T04:05:30.618Z,1017.62
2017-04-09T04:05:56.721Z,1017.63
2017-04-09T04:06:22.823Z,1017.62
2017-04-09T04:06:48.927Z,1017.64
2017-04-09T04:07:15.008Z,1017.64
2017-04-09T04:07:41.087Z,1017.62
2017-04-09T04:08:07.191Z,1017.61
2017-04-09T04:08:33.296Z,1017.65
2017-04-09T04:08:59.445Z,1017.65
2017-04-09T04:09:25.601Z,1017.62
2017-04-09T04:09:51.705Z,1017.67
2017-04-09T04:10:17.791Z,1017.64
2017-04-09T04:10:43.871Z,1017.65
2017-04-09T04:11:09.951Z,1017.67
2017-04-09T04:11:36.032Z,1017.65
2017-04-09T04:12:02.114Z,1017.61
2017-04-09T04:12:28.215Z,1017.66
2017-04-09T04:12:54.296Z,1017.63
2017-04-09T04:13:20.378Z,1017.64
2017-04-09T04:13:46.462Z,1017.66
2017-04-09T04:14:12.546Z,1017.67
2017-04-09T04:14:38.626Z,1017.69
2017-04-09T04:15:04.703Z,1017.66
2017-04-09T04:15:30.781Z,1017.67
2017-04-09T04:15:56.863Z,1017.68
2017-04-09T04:16:23.018Z,1017.69
2017-04-09T04:16:49.119Z,1017.71
2017-04-09T04:17:15.226Z,1017.66
2017-04-09T04:17:41.304Z,1017.67
2017-04-09T04:18:07.386Z,1017.72
2017-04-09T04:18:33.493Z,1017.67
2017-04-09T04:18:59.593Z,1017.69
2017-04-09T04:19:25.671Z,1017.7
2017-04-09T04:19:51.779Z,1017.66
2017-04-09T04:20:17.883Z,1017.7
2017-04-09T04:20:43.967Z,1017.69
2017-04-09T04:21:10.071Z,1017.7
2017-04-09T04:21:36.272Z,1017.7
2017-04-09T04:22:02.355Z,1017.69
2017-04-09T04:22:28.481Z,1017.71
2017-04-09T04:22:54.584Z,1017.7
2017-04-09T04:23:20.665Z,1017.67
2017-04-09T04:23:46.745Z,1017.72
2017-04-09T04:24:12.873Z,1017.7
2017-04-09T04:24:38.976Z,1017.68
2017-04-09T04:25:05.058Z,1017.65
2017-04-09T04:25:31.137Z,1017.67
2017-04-09T04:25:57.220Z,1017.7
2017-04-09T04:26:23.675Z,1017.7
2017-04-09T04:26:49.756Z,1017.69
2017-04-09T04:27:15.859Z,1017.64
2017-04-09T04:27:41.964Z,1017.66
2017-04-09T04:28:08.071Z,1017.65
2017-04-09T04:28:34.172Z,1017.69
2017-04-09T04:29:00.254Z,1017.64
2017-04-09T04:29:26.385Z,1017.67
2017-04-09T04:29:52.487Z,1017.67
2017-04-09T04:30:18.570Z,1017.63
2017-04-09T04:30:44.653Z,1017.68
2017-04-09T04:31:10.734Z,1017.7
2017-04-09T04:31:36.812Z,1017.67
2017-04-09T04:32:02.895Z,1017.69
2017-04-09T04:32:28.976Z,1017.68
2017-04-09T04:32:55.079Z,1017.7
2017-04-09T04:33:21.183Z,1017.68
2017-04-09T04:33:47.260Z,1017.7
2017-04-09T04:34:13.340Z,1017.67
2017-04-09T04:34:39.423Z,1017.68
2017-04-09T04:35:05.506Z,1017.69
2017-04-09T04:35:31.606Z,1017.7
2017-04-09T04:35:57.684Z,1017.69
2017-04-09T04:36:23.767Z,1017.68
2017-04-09T04:36:49.844Z,1017.67
2017-04-09T04:37:15.927Z,1017.67
2017-04-09T04:37:42.011Z,1017.67
2017-04-09T04:38:08.092Z,1017.68
2017-04-09T04:38:34.198Z,1017.7
2017-04-09T04:39:00.302Z,1017.71
2017-04-09T04:39:26.409Z,1017.68
2017-04-09T04:39:52.466Z,1017.71
2017-04-09T04:40:18.570Z,1017.7
2017-04-09T04:40:44.654Z,1017.73
2017-04-09T04:41:10.735Z,1017.75
2017-04-09T04:41:36.862Z,1017.72
2017-04-09T04:42:02.981Z,1017.72
2017-04-09T04:42:29.066Z,1017.71
2017-04-09T04:42:55.194Z,1017.7
2017-04-09T04:43:21.277Z,1017.72
2017-04-09T04:43:47.404Z,1017.72
2017-04-09T04:44:13.530Z,1017.73
2017-04-09T04:44:39.635Z,1017.72
2017-04-09T04:45:05.716Z,1017.69
2017-04-09T04:45:31.795Z,1017.71
2017-04-09T04:45:57.880Z,1017.74
2017-04-09T04:46:24.006Z,1017.7
2017-04-09T04:46:50.133Z,1017.75
2017-04-09T04:47:16.261Z,1017.71
2017-04-09T04:47:42.389Z,1017.7
2017-04-09T04:48:08.494Z,1017.73
2017-04-09T04:48:34.596Z,1017.77
2017-04-09T04:49:00.680Z,1017.78
2017-04-09T04:49:26.830Z,1017.76
2017-04-09T04:49:53.036Z,1017.76
2017-04-09T04:50:19.139Z,1017.81
2017-04-09T04:50:45.239Z,1017.79
2017-04-09T04:51:11.371Z,1017.8
2017-04-09T04:51:37.477Z,1017.78
2017-04-09T04:52:03.559Z,1017.8
2017-04-09T04:52:29.665Z,1017.79
2017-04-09T04:52:55.791Z,1017.8
2017-04-09T04:53:21.873Z,1017.83
2017-04-09T04:53:48.002Z,1017.8
2017-04-09T04:54:14.082Z,1017.81
2017-04-09T04:54:40.208Z,1017.8
2017-04-09T04:55:06.315Z,1017.77
2017-04-09T04:55:32.397Z,1017.79
2017-04-09T04:55:58.478Z,1017.83
2017-04-09T04:56:24.582Z,1017.79
2017-04-09T04:56:50.662Z,1017.81
2017-04-09T04:57:16.745Z,1017.81
2017-04-09T04:57:42.850Z,1017.8
2017-04-09T04:58:08.956Z,1017.82
2017-04-09T04:58:35.058Z,1017.87
2017-04-09T04:59:01.162Z,1017.86
2017-04-09T04:59:27.243Z,1017.86
2017-04-09T04:59:53.396Z,1017.87
2017-04-09T05:00:19.478Z,1017.84
2017-04-09T05:00:45.561Z,1017.88
2017-04-09T05:01:11.644Z,1017.85
2017-04-09T05:01:37.725Z,1017.87
2017-04-09T05:02:03.808Z,1017.85
2017-04-09T05:02:29.911Z,1017.84
2017-04-09T05:02:55.994Z,1017.87
2017-04-09T05:03:22.098Z,1017.87
2017-04-09T05:03:48.179Z,1017.87
2017-04-09T05:04:14.260Z,1017.89
2017-04-09T05:04:40.338Z,1017.89
2017-04-09T05:05:06.422Z,1017.88
2017-04-09T05:05:32.557Z,1017.89
2017-04-09T05:05:58.636Z,1017.9
2017-04-09T05:06:24.715Z,1017.91
2017-04-09T05:06:50.796Z,1017.88
2017-04-09T05:07:17.027Z,1017.9
2017-04-09T05:07:43.107Z,1017.9
2017-04-09T05:08:09.234Z,1017.91
2017-04-09T05:08:35.365Z,1017.92
2017-04-09T05:09:01.446Z,1017.91
2017-04-09T05:09:27.529Z,1017.95
2017-04-09T05:09:53.610Z,1017.93
2017-04-09T05:10:19.737Z,1017.9
2017-04-09T05:10:45.839Z,1017.92
2017-04-09T05:11:11.918Z,1017.96
2017-04-09T05:11:37.996Z,1017.92
2017-04-09T05:12:04.100Z,1017.98
2017-04-09T05:12:30.230Z,1017.96
2017-04-09T05:12:56.334Z,1017.97
2017-04-09T05:13:22.438Z,1017.96
2017-04-09T05:13:48.561Z,1017.98
2017-04-09T05:14:14.688Z,1017.95
2017-04-09T05:14:40.769Z,1017.96
2017-04-09T05:15:06.895Z,1017.95
2017-04-09T05:15:33.005Z,1017.94
2017-04-09T05:15:59.110Z,1017.93
2017-04-09T05:16:25.192Z,1017.93
2017-04-09T05:16:51.300Z,1017.95
2017-04-09T05:17:17.381Z,1017.99
2017-04-09T05:17:43.486Z,1018
2017-04-09T05:18:09.636Z,1017.98
2017-04-09T05:18:35.818Z,1017.96
2017-04-09T05:19:01.944Z,1017.97
2017-04-09T05:19:28.047Z,1017.96
2017-04-09T05:19:54.127Z,1017.95
2017-04-09T05:20:20.210Z,1017.96
2017-04-09T05:20:46.293Z,1017.98
2017-04-09T05:21:12.396Z,1017.97
2017-04-09T05:21:38.475Z,1017.97
2017-04-09T05:22:04.556Z,1017.94
2017-04-09T05:22:30.661Z,1017.98
2017-04-09T05:22:56.745Z,1017.98
2017-04-09T05:23:22.848Z,1017.99
2017-04-09T05:23:49.027Z,1018.01